Time;durP1;ratioP1;P1;durP2;ratioP2;P2;SDS_P1;SDS_P2;PMS_P1;PMS_P2;Temp;Humidity;BMP_temperature;BMP_pressure;BME280_temperature;BME280_humidity;BME280_pressure;Samples;Min_cycle;Max_cycle;Signal;HPM_P1;HPM_P2
2022/12/21 00:00:55;;;;;;;5.40;1.53;;;;;;;;;;5120678;28;20251;-64
2022/12/21 00:03:23;;;;;;;3.13;1.40;;;;;;;;;;5117583;28;20220;-65
2022/12/21 00:05:57;;;;;;;3.93;1.60;;;;;;;;;;5119796;28;20205;-65
2022/12/21 00:08:25;;;;;;;3.87;1.03;;;;;;;;;;5120755;28;20208;-65
2022/12/21 00:10:58;;;;;;;2.20;1.37;;;;;;;;;;5120091;28;20691;-63
2022/12/21 00:13:26;;;;;;;4.27;1.43;;;;;;;;;;5120480;28;20246;-65
2022/12/21 00:15:57;;;;;;;3.47;1.30;;;;;;;;;;5120662;28;20209;-64
2022/12/21 00:18:25;;;;;;;3.97;1.23;;;;;;;;;;5120307;28;20243;-64
2022/12/21 00:21:01;;;;;;;3.60;1.50;;;;;;;;;;5120144;28;20204;-64
2022/12/21 00:23:30;;;;;;;3.03;1.10;;;;;;;;;;5120321;28;20228;-63
2022/12/21 00:25:58;;;;;;;3.70;1.20;;;;;;;;;;5120033;28;20212;-65
2022/12/21 00:28:27;;;;;;;3.10;1.53;;;;;;;;;;5120416;28;20211;-65
2022/12/21 00:30:55;;;;;;;3.20;1.17;;;;;;;;;;5120389;28;20208;-64
2022/12/21 00:33:23;;;;;;;4.73;1.27;;;;;;;;;;5116578;28;20316;-65
2022/12/21 00:35:51;;;;;;;7.13;1.77;;;;;;;;;;5119915;28;20571;-65
2022/12/21 00:38:21;;;;;;;4.90;1.90;;;;;;;;;;5120105;28;20200;-65
2022/12/21 00:40:56;;;;;;;5.77;1.60;;;;;;;;;;5119901;28;20254;-64
2022/12/21 00:43:24;;;;;;;3.97;1.53;;;;;;;;;;5119714;28;20625;-65
2022/12/21 00:45:52;;;;;;;3.60;1.23;;;;;;;;;;5120083;28;20278;-64
2022/12/21 00:48:20;;;;;;;6.20;1.63;;;;;;;;;;5119983;28;20216;-65
2022/12/21 00:50:48;;;;;;;5.30;1.60;;;;;;;;;;5115823;28;20205;-64
2022/12/21 00:53:16;;;;;;;5.50;1.87;;;;;;;;;;5119440;28;20576;-64
2022/12/21 00:55:53;;;;;;;5.50;1.20;;;;;;;;;;5119177;27;20567;-64
2022/12/21 00:58:21;;;;;;;3.07;1.17;;;;;;;;;;5110694;28;20556;-64
2022/12/21 01:00:49;;;;;;;3.53;1.33;;;;;;;;;;5119561;27;20208;-64
2022/12/21 01:03:17;;;;;;;4.07;2.00;;;;;;;;;;5118142;28;20221;-64
2022/12/21 01:05:46;;;;;;;2.30;1.10;;;;;;;;;;5119046;28;20204;-64
2022/12/21 01:08:14;;;;;;;4.53;1.33;;;;;;;;;;5119406;28;20212;-64
2022/12/21 01:10:42;;;;;;;1.47;1.37;;;;;;;;;;5119030;28;20200;-64
2022/12/21 01:13:12;;;;;;;4.50;1.50;;;;;;;;;;5119555;28;20277;-64
2022/12/21 01:15:40;;;;;;;3.57;1.80;;;;;;;;;;5114169;28;20629;-64
2022/12/21 01:18:08;;;;;;;1.30;1.20;;;;;;;;;;5119122;28;20260;-64
2022/12/21 01:20:39;;;;;;;6.67;1.50;;;;;;;;;;5119180;28;20751;-64
2022/12/21 01:23:07;;;;;;;5.10;1.50;;;;;;;;;;5119219;28;20221;-64
2022/12/21 01:25:35;;;;;;;2.73;1.67;;;;;;;;;;5119217;28;20225;-64
2022/12/21 01:28:04;;;;;;;7.90;1.80;;;;;;;;;;5119071;28;20216;-64
2022/12/21 01:30:33;;;;;;;4.90;1.70;;;;;;;;;;5118984;28;20686;-64
2022/12/21 01:33:01;;;;;;;3.63;1.50;;;;;;;;;;5113296;28;20266;-64
2022/12/21 01:35:29;;;;;;;4.17;1.47;;;;;;;;;;5117404;28;20197;-64
2022/12/21 01:37:57;;;;;;;3.03;1.47;;;;;;;;;;5119014;28;20208;-64
2022/12/21 01:40:29;;;;;;;4.37;1.93;;;;;;;;;;5119022;28;20209;-64
2022/12/21 01:42:58;;;;;;;6.37;1.47;;;;;;;;;;5118585;28;20231;-63
2022/12/21 01:45:27;;;;;;;2.03;1.17;;;;;;;;;;5118611;28;20695;-63
2022/12/21 01:47:57;;;;;;;2.97;1.30;;;;;;;;;;5118803;28;20201;-64
2022/12/21 01:50:38;;;;;;;3.70;1.10;;;;;;;;;;5118812;28;20643;-63
2022/12/21 01:53:08;;;;;;;3.77;1.23;;;;;;;;;;5118794;28;20228;-64
2022/12/21 01:55:37;;;;;;;1.67;1.17;;;;;;;;;;5118774;28;20197;-63
2022/12/21 01:58:07;;;;;;;3.73;1.30;;;;;;;;;;5118639;28;20291;-63
2022/12/21 02:00:35;;;;;;;3.10;1.77;;;;;;;;;;5118642;28;20208;-63
2022/12/21 02:03:06;;;;;;;5.93;1.40;;;;;;;;;;5117279;28;20231;-65
2022/12/21 02:05:35;;;;;;;4.60;1.33;;;;;;;;;;5118409;28;20225;-63
2022/12/21 02:08:04;;;;;;;4.13;1.40;;;;;;;;;;5118409;28;20643;-63
2022/12/21 02:10:32;;;;;;;3.70;1.40;;;;;;;;;;5118273;28;20652;-65
2022/12/21 02:13:02;;;;;;;5.13;1.57;;;;;;;;;;5118234;28;20221;-65
2022/12/21 02:15:36;;;;;;;2.47;1.27;;;;;;;;;;5117989;28;20201;-64
2022/12/21 02:18:09;;;;;;;2.20;1.70;;;;;;;;;;5118082;28;20263;-63
2022/12/21 02:20:46;;;;;;;5.47;2.40;;;;;;;;;;5118334;28;20204;-64
2022/12/21 02:23:23;;;;;;;6.17;1.30;;;;;;;;;;5118371;28;20232;-64
2022/12/21 02:26:04;;;;;;;3.17;1.17;;;;;;;;;;5118166;28;20228;-65
2022/12/21 02:28:43;;;;;;;4.07;1.20;;;;;;;;;;5118395;28;20644;-63
2022/12/21 02:31:17;;;;;;;1.67;1.57;;;;;;;;;;5116553;28;20204;-65
2022/12/21 02:33:51;;;;;;;6.43;1.90;;;;;;;;;;5116217;28;20256;-65
2022/12/21 02:36:28;;;;;;;4.93;1.50;;;;;;;;;;5116373;28;20209;-63
2022/12/21 02:39:01;;;;;;;4.57;1.80;;;;;;;;;;5116295;28;20208;-63
2022/12/21 02:41:36;;;;;;;3.80;1.33;;;;;;;;;;5118059;28;20201;-65
2022/12/21 02:44:15;;;;;;;2.93;1.30;;;;;;;;;;5118123;28;20219;-63
2022/12/21 02:46:47;;;;;;;4.77;1.57;;;;;;;;;;5117058;28;20220;-64
2022/12/21 02:49:17;;;;;;;3.37;1.60;;;;;;;;;;5118133;28;20204;-65
2022/12/21 02:51:47;;;;;;;5.87;1.00;;;;;;;;;;5118201;28;20204;-65
2022/12/21 02:54:16;;;;;;;3.77;1.47;;;;;;;;;;5118105;28;20227;-65
2022/12/21 02:56:44;;;;;;;2.13;1.20;;;;;;;;;;5118030;28;20211;-65
2022/12/21 02:59:14;;;;;;;4.13;1.10;;;;;;;;;;5117884;28;20571;-65
2022/12/21 03:01:52;;;;;;;4.93;1.50;;;;;;;;;;5116191;28;20262;-65
2022/12/21 03:04:36;;;;;;;3.57;1.30;;;;;;;;;;5115022;28;20221;-65
2022/12/21 03:07:13;;;;;;;3.73;1.20;;;;;;;;;;5117730;28;20648;-65
2022/12/21 03:09:49;;;;;;;3.17;1.10;;;;;;;;;;5118105;28;20205;-65
2022/12/21 03:12:24;;;;;;;1.93;1.00;;;;;;;;;;5117554;28;20200;-65
2022/12/21 03:14:56;;;;;;;5.67;1.23;;;;;;;;;;5117943;28;20204;-65
2022/12/21 03:17:30;;;;;;;1.10;1.00;;;;;;;;;;5117971;28;20201;-65
2022/12/21 03:20:00;;;;;;;4.23;1.13;;;;;;;;;;5117784;28;20663;-65
2022/12/21 03:22:34;;;;;;;1.90;1.10;;;;;;;;;;5117926;28;20212;-65
2022/12/21 03:25:07;;;;;;;1.23;1.00;;;;;;;;;;5117793;28;20224;-65
2022/12/21 03:27:37;;;;;;;3.67;1.00;;;;;;;;;;5121227;28;20201;-65
2022/12/21 03:30:06;;;;;;;1.67;0.90;;;;;;;;;;5121518;28;20205;-64
2022/12/21 03:32:40;;;;;;;1.73;1.00;;;;;;;;;;5120345;28;20224;-65
2022/12/21 03:35:12;;;;;;;1.43;1.03;;;;;;;;;;5121421;28;20196;-64
2022/12/21 03:37:41;;;;;;;4.00;1.20;;;;;;;;;;5121172;28;20620;-65
2022/12/21 03:40:11;;;;;;;0.87;0.87;;;;;;;;;;5121383;28;20258;-65
2022/12/21 03:42:41;;;;;;;1.10;1.03;;;;;;;;;;5120883;28;20595;-65
2022/12/21 03:45:11;;;;;;;1.03;0.93;;;;;;;;;;5121099;28;20691;-65
2022/12/21 03:47:43;;;;;;;1.67;1.07;;;;;;;;;;5121268;28;20208;-64
2022/12/21 03:50:14;;;;;;;1.13;0.93;;;;;;;;;;5121168;28;20211;-65
2022/12/21 03:52:45;;;;;;;3.33;1.23;;;;;;;;;;5121081;27;20278;-63
2022/12/21 03:55:14;;;;;;;2.03;1.30;;;;;;;;;;5121181;28;20212;-64
2022/12/21 03:57:42;;;;;;;5.77;1.30;;;;;;;;;;5120843;28;20219;-65
2022/12/21 04:00:11;;;;;;;2.23;1.27;;;;;;;;;;5121022;27;20205;-65
2022/12/21 04:02:45;;;;;;;4.00;1.60;;;;;;;;;;5119871;28;20224;-63
2022/12/21 04:05:14;;;;;;;1.50;0.97;;;;;;;;;;5120614;28;20246;-63
2022/12/21 04:07:42;;;;;;;2.03;1.07;;;;;;;;;;5120847;28;20254;-63
2022/12/21 04:10:12;;;;;;;2.50;1.20;;;;;;;;;;5120424;28;20679;-64
2022/12/21 04:12:39;;;;;;;1.37;1.20;;;;;;;;;;5120419;28;20227;-64
2022/12/21 04:15:09;;;;;;;2.10;1.33;;;;;;;;;;5120562;28;20205;-64
2022/12/21 04:17:37;;;;;;;1.13;0.90;;;;;;;;;;5120260;28;20571;-64
2022/12/21 04:20:06;;;;;;;2.50;1.60;;;;;;;;;;5120413;27;20204;-64
2022/12/21 04:28:11;;;;;;;2.83;1.00;;;;;;;;;;5120429;28;20211;-64
2022/12/21 04:30:59;;;;;;;2.03;1.33;;;;;;;;;;5119092;28;20235;-64
2022/12/21 04:33:28;;;;;;;1.77;1.10;;;;;;;;;;5118068;28;20220;-64
2022/12/21 04:38:44;;;;;;;2.57;1.00;;;;;;;;;;5120227;28;20258;-64
2022/12/21 04:41:12;;;;;;;1.50;1.03;;;;;;;;;;5119629;28;20227;-64
2022/12/21 04:43:41;;;;;;;2.00;1.27;;;;;;;;;;5120060;28;20228;-64
2022/12/21 04:46:10;;;;;;;2.27;1.23;;;;;;;;;;5119979;28;20282;-64
2022/12/21 04:48:38;;;;;;;3.97;1.20;;;;;;;;;;5120028;28;20208;-64
2022/12/21 04:51:08;;;;;;;1.90;0.93;;;;;;;;;;5119576;28;20253;-64
2022/12/21 04:53:36;;;;;;;0.87;0.87;;;;;;;;;;5119982;28;20224;-64
2022/12/21 04:56:05;;;;;;;1.63;1.33;;;;;;;;;;5119425;28;20617;-64
2022/12/21 04:58:33;;;;;;;1.63;1.10;;;;;;;;;;5119944;28;20204;-64
2022/12/21 05:01:01;;;;;;;2.30;1.30;;;;;;;;;;5118967;28;20208;-64
2022/12/21 05:03:30;;;;;;;2.43;0.93;;;;;;;;;;5119426;28;20281;-64
2022/12/21 05:05:58;;;;;;;3.30;1.33;;;;;;;;;;5119371;28;20254;-64
2022/12/21 05:08:28;;;;;;;1.40;0.90;;;;;;;;;;5119634;28;20215;-64
2022/12/21 05:11:06;;;;;;;2.30;1.10;;;;;;;;;;5119566;28;20648;-64
2022/12/21 05:13:34;;;;;;;2.73;0.87;;;;;;;;;;5119194;28;20269;-64
2022/12/21 05:16:02;;;;;;;2.03;0.87;;;;;;;;;;5119315;28;20197;-64
2022/12/21 05:18:30;;;;;;;2.40;1.03;;;;;;;;;;5111545;28;20630;-64
2022/12/21 05:20:58;;;;;;;2.00;1.10;;;;;;;;;;5117111;28;20201;-64
2022/12/21 05:23:28;;;;;;;1.27;1.17;;;;;;;;;;5118996;28;20224;-64
2022/12/21 05:25:55;;;;;;;0.80;0.80;;;;;;;;;;5118768;28;20240;-63
2022/12/21 05:28:23;;;;;;;1.37;1.00;;;;;;;;;;5118922;28;20201;-64
2022/12/21 05:30:51;;;;;;;1.43;0.83;;;;;;;;;;5118966;28;20204;-64
2022/12/21 05:33:19;;;;;;;3.47;1.10;;;;;;;;;;5118790;28;20225;-64
2022/12/21 05:35:47;;;;;;;1.77;0.90;;;;;;;;;;5119046;27;20239;-64
2022/12/21 05:38:15;;;;;;;1.27;0.90;;;;;;;;;;5118729;28;20208;-64
2022/12/21 05:40:48;;;;;;;1.03;0.90;;;;;;;;;;5118880;28;20205;-63
2022/12/21 05:43:16;;;;;;;1.50;1.10;;;;;;;;;;5118714;28;20232;-63
2022/12/21 05:45:44;;;;;;;0.70;0.70;;;;;;;;;;5118570;28;20239;-65
2022/12/21 05:48:12;;;;;;;2.50;0.80;;;;;;;;;;5118386;28;20244;-63
2022/12/21 05:50:40;;;;;;;1.67;0.87;;;;;;;;;;5114696;28;20227;-64
2022/12/21 05:53:08;;;;;;;2.43;0.97;;;;;;;;;;5118774;28;20247;-64
2022/12/21 05:55:43;;;;;;;1.37;0.80;;;;;;;;;;5118508;28;20208;-64
2022/12/21 05:58:12;;;;;;;1.50;0.80;;;;;;;;;;5118872;28;20204;-64
2022/12/21 06:00:41;;;;;;;0.97;0.97;;;;;;;;;;5118683;28;20236;-65
2022/12/21 06:03:09;;;;;;;1.03;0.90;;;;;;;;;;5118356;28;20691;-63
2022/12/21 06:05:38;;;;;;;2.43;0.90;;;;;;;;;;5118287;28;20208;-63
2022/12/21 06:08:06;;;;;;;1.23;1.13;;;;;;;;;;5118946;28;20318;-65
2022/12/21 06:10:35;;;;;;;1.27;1.17;;;;;;;;;;5117925;27;20699;-64
2022/12/21 06:13:04;;;;;;;2.73;0.90;;;;;;;;;;5115199;28;20221;-63
2022/12/21 06:15:33;;;;;;;0.83;0.83;;;;;;;;;;5114237;28;20197;-62
2022/12/21 06:18:01;;;;;;;2.10;1.03;;;;;;;;;;5116862;28;20742;-65
2022/12/21 06:20:32;;;;;;;0.80;0.80;;;;;;;;;;5115076;28;20263;-64
2022/12/21 06:23:00;;;;;;;1.57;0.87;;;;;;;;;;5111313;28;20225;-64
2022/12/21 06:25:28;;;;;;;2.37;1.00;;;;;;;;;;5111176;28;20204;-65
2022/12/21 06:27:56;;;;;;;2.20;1.20;;;;;;;;;;5114438;28;20220;-64
2022/12/21 06:30:24;;;;;;;2.00;1.03;;;;;;;;;;5113145;28;20237;-63
2022/12/21 06:32:53;;;;;;;2.00;1.23;;;;;;;;;;5113739;28;20213;-63
2022/12/21 06:35:21;;;;;;;1.37;0.90;;;;;;;;;;5105587;28;20197;-63
2022/12/21 06:37:55;;;;;;;1.53;1.03;;;;;;;;;;5113300;28;20205;-63
2022/12/21 06:40:26;;;;;;;1.27;1.20;;;;;;;;;;5107102;28;20205;-64
2022/12/21 06:42:54;;;;;;;6.10;1.27;;;;;;;;;;5109242;28;20248;-64
2022/12/21 06:45:26;;;;;;;1.57;1.10;;;;;;;;;;5113137;28;20196;-64
2022/12/21 06:47:55;;;;;;;2.70;1.50;;;;;;;;;;5105225;28;20700;-64
2022/12/21 06:50:25;;;;;;;0.83;0.83;;;;;;;;;;5116762;28;20208;-64
2022/12/21 06:52:53;;;;;;;2.30;1.33;;;;;;;;;;5107169;28;20225;-64
2022/12/21 06:55:21;;;;;;;1.23;1.00;;;;;;;;;;5108294;28;20208;-64
2022/12/21 06:57:52;;;;;;;1.13;1.00;;;;;;;;;;5110297;28;20254;-64
2022/12/21 07:00:20;;;;;;;3.73;1.20;;;;;;;;;;5110501;28;20219;-64
2022/12/21 07:02:48;;;;;;;0.90;0.90;;;;;;;;;;5119415;28;20304;-63
2022/12/21 07:05:18;;;;;;;3.07;1.10;;;;;;;;;;5120603;28;20699;-64
2022/12/21 07:07:46;;;;;;;1.83;1.57;;;;;;;;;;5113148;28;20221;-63
2022/12/21 07:10:14;;;;;;;1.97;1.53;;;;;;;;;;5120521;28;20235;-63
2022/12/21 07:12:42;;;;;;;1.57;1.30;;;;;;;;;;5116285;27;20228;-63
2022/12/21 07:15:10;;;;;;;1.33;0.90;;;;;;;;;;5114875;28;20672;-64
2022/12/21 07:17:39;;;;;;;1.23;1.13;;;;;;;;;;5110371;28;20597;-65
2022/12/21 07:20:08;;;;;;;2.63;1.30;;;;;;;;;;5116700;28;20197;-64
2022/12/21 07:22:37;;;;;;;3.30;1.10;;;;;;;;;;5120018;28;20240;-64
2022/12/21 07:25:05;;;;;;;1.90;1.20;;;;;;;;;;5109653;28;20205;-63
2022/12/21 07:27:33;;;;;;;1.93;0.80;;;;;;;;;;5118157;28;20216;-62
2022/12/21 07:30:01;;;;;;;1.80;0.97;;;;;;;;;;5116450;28;20196;-63
2022/12/21 07:32:29;;;;;;;0.83;0.80;;;;;;;;;;5116419;28;20235;-63
2022/12/21 07:34:57;;;;;;;1.20;1.10;;;;;;;;;;5115108;28;20209;-64
2022/12/21 07:37:25;;;;;;;1.10;1.00;;;;;;;;;;5114581;28;20200;-64
2022/12/21 07:39:55;;;;;;;3.57;1.10;;;;;;;;;;5116812;27;20227;-63
2022/12/21 07:42:24;;;;;;;2.07;1.00;;;;;;;;;;5112921;28;20201;-63
2022/12/21 07:44:52;;;;;;;1.20;0.90;;;;;;;;;;5117024;28;20703;-64
2022/12/21 07:47:20;;;;;;;1.37;1.20;;;;;;;;;;5119844;28;20225;-64
2022/12/21 07:49:48;;;;;;;7.47;1.10;;;;;;;;;;5117565;28;20204;-63
2022/12/21 07:52:16;;;;;;;1.50;1.00;;;;;;;;;;5119435;28;20729;-64
2022/12/21 07:54:43;;;;;;;3.40;1.10;;;;;;;;;;5113683;28;20201;-64
2022/12/21 07:57:18;;;;;;;0.70;0.70;;;;;;;;;;5110211;28;20607;-64
2022/12/21 07:59:46;;;;;;;3.77;1.20;;;;;;;;;;5113436;28;20205;-66
2022/12/21 08:02:14;;;;;;;1.27;1.10;;;;;;;;;;5109178;28;20724;-64
2022/12/21 08:04:42;;;;;;;1.03;0.93;;;;;;;;;;5113914;28;20236;-64
2022/12/21 08:07:10;;;;;;;1.23;0.83;;;;;;;;;;5120349;28;20284;-64
2022/12/21 08:09:38;;;;;;;6.57;1.37;;;;;;;;;;5114218;28;20229;-64
2022/12/21 08:12:06;;;;;;;1.30;0.87;;;;;;;;;;5117713;28;20197;-64
2022/12/21 08:14:42;;;;;;;4.30;1.10;;;;;;;;;;5119025;28;20208;-64
2022/12/21 08:17:10;;;;;;;1.23;0.90;;;;;;;;;;5120509;28;20215;-64
2022/12/21 08:19:38;;;;;;;2.33;0.80;;;;;;;;;;5119933;28;20328;-64
2022/12/21 08:22:06;;;;;;;1.00;0.97;;;;;;;;;;5120243;28;20292;-64
2022/12/21 08:24:34;;;;;;;1.63;0.97;;;;;;;;;;5118632;28;20220;-63
2022/12/21 08:27:02;;;;;;;3.97;1.33;;;;;;;;;;5120212;28;20217;-64
2022/12/21 08:29:31;;;;;;;1.00;0.90;;;;;;;;;;5119992;28;20205;-63
2022/12/21 08:32:00;;;;;;;3.03;1.40;;;;;;;;;;5118134;28;20228;-62
2022/12/21 08:34:28;;;;;;;2.50;0.83;;;;;;;;;;5119955;28;20258;-63
2022/12/21 08:36:57;;;;;;;3.00;1.17;;;;;;;;;;5118973;27;20746;-64
2022/12/21 08:39:25;;;;;;;0.97;0.90;;;;;;;;;;5119865;28;20226;-63
2022/12/21 08:41:53;;;;;;;1.80;1.00;;;;;;;;;;5119595;28;20209;-63
2022/12/21 08:44:21;;;;;;;3.60;1.10;;;;;;;;;;5119737;28;20224;-63
2022/12/21 08:46:49;;;;;;;1.17;1.10;;;;;;;;;;5119892;28;20243;-63
2022/12/21 08:49:19;;;;;;;1.10;1.00;;;;;;;;;;5119589;28;20583;-62
2022/12/21 08:51:47;;;;;;;1.27;1.10;;;;;;;;;;5119762;28;20341;-63
2022/12/21 08:54:15;;;;;;;1.70;1.00;;;;;;;;;;5119501;28;20564;-63
2022/12/21 08:56:43;;;;;;;1.07;1.00;;;;;;;;;;5119448;28;20639;-63
2022/12/21 08:59:11;;;;;;;2.50;1.10;;;;;;;;;;5119767;28;20205;-62
2022/12/21 09:01:39;;;;;;;3.60;1.50;;;;;;;;;;5119859;28;20288;-63
2022/12/21 09:04:07;;;;;;;2.27;1.03;;;;;;;;;;5119187;28;20715;-61
2022/12/21 09:06:36;;;;;;;4.37;1.30;;;;;;;;;;5115401;28;20227;-63
2022/12/21 09:09:04;;;;;;;2.53;1.30;;;;;;;;;;5119114;28;20227;-63
2022/12/21 09:11:32;;;;;;;5.97;1.37;;;;;;;;;;5119077;28;20269;-63
2022/12/21 09:14:16;;;;;;;4.33;1.70;;;;;;;;;;5118281;28;20699;-62
2022/12/21 09:16:44;;;;;;;5.20;1.33;;;;;;;;;;5118872;28;20208;-63
2022/12/21 09:19:12;;;;;;;1.93;1.40;;;;;;;;;;5118966;28;20290;-63
2022/12/21 09:21:42;;;;;;;2.07;1.37;;;;;;;;;;5119105;28;20216;-63
2022/12/21 09:24:10;;;;;;;2.70;1.50;;;;;;;;;;5118087;28;20655;-63
2022/12/21 09:26:37;;;;;;;2.23;1.70;;;;;;;;;;5118332;28;20199;-62
2022/12/21 09:29:05;;;;;;;3.33;2.10;;;;;;;;;;5120237;27;20220;-62
2022/12/21 09:31:33;;;;;;;2.20;2.00;;;;;;;;;;5113757;28;20197;-62
2022/12/21 09:34:01;;;;;;;2.73;2.33;;;;;;;;;;5114727;28;20276;-62
2022/12/21 09:36:32;;;;;;;6.40;4.60;;;;;;;;;;5107948;28;20226;-61
2022/12/21 09:39:21;;;;;;;5.23;2.63;;;;;;;;;;5110425;28;20709;-64
2022/12/21 09:42:04;;;;;;;6.93;2.37;;;;;;;;;;5118473;28;20679;-63
2022/12/21 09:44:43;;;;;;;3.10;2.10;;;;;;;;;;5111957;28;20273;-62
2022/12/21 09:47:14;;;;;;;2.57;2.23;;;;;;;;;;5115838;28;20236;-63
2022/12/21 09:49:46;;;;;;;2.47;1.50;;;;;;;;;;5116405;28;20232;-63
2022/12/21 09:52:18;;;;;;;3.00;1.60;;;;;;;;;;5118607;28;20205;-62
2022/12/21 09:54:50;;;;;;;9.03;1.53;;;;;;;;;;5118367;28;20228;-63
2022/12/21 09:57:18;;;;;;;2.03;1.50;;;;;;;;;;5107372;28;20211;-61
2022/12/21 09:59:46;;;;;;;2.97;1.97;;;;;;;;;;5118703;27;20196;-63
2022/12/21 10:02:20;;;;;;;3.03;1.40;;;;;;;;;;5118349;28;20228;-63
2022/12/21 10:04:54;;;;;;;3.90;1.73;;;;;;;;;;5118557;28;20207;-63
2022/12/21 10:08:03;;;;;;;1.70;1.50;;;;;;;;;;5112431;28;20197;-63
2022/12/21 10:10:36;;;;;;;3.70;1.63;;;;;;;;;;5098376;28;20663;-63
2022/12/21 10:13:07;;;;;;;2.93;1.57;;;;;;;;;;5118155;28;20225;-64
2022/12/21 10:15:39;;;;;;;5.20;1.80;;;;;;;;;;5117057;28;20295;-64
2022/12/21 10:18:13;;;;;;;6.20;2.23;;;;;;;;;;5118093;28;20268;-63
2022/12/21 10:20:48;;;;;;;3.57;2.30;;;;;;;;;;5116046;28;20196;-63
2022/12/21 10:23:19;;;;;;;4.87;2.40;;;;;;;;;;5118533;28;20227;-63
2022/12/21 10:25:51;;;;;;;2.73;1.27;;;;;;;;;;5114967;28;20235;-64
2022/12/21 10:28:38;;;;;;;1.30;1.07;;;;;;;;;;5110338;28;20606;-64
2022/12/21 10:31:07;;;;;;;2.37;1.37;;;;;;;;;;5108870;28;20239;-64
2022/12/21 10:33:37;;;;;;;2.10;1.00;;;;;;;;;;5115958;28;20225;-64
2022/12/21 10:36:06;;;;;;;1.57;1.00;;;;;;;;;;5119788;28;20291;-64
2022/12/21 10:38:35;;;;;;;2.00;1.10;;;;;;;;;;5121452;28;20284;-64
2022/12/21 10:41:06;;;;;;;1.40;1.20;;;;;;;;;;5119818;28;20609;-64
2022/12/21 10:43:36;;;;;;;1.23;1.13;;;;;;;;;;5121452;28;20216;-64
2022/12/21 10:46:05;;;;;;;1.50;1.23;;;;;;;;;;5120771;27;20225;-64
2022/12/21 10:48:34;;;;;;;1.37;1.27;;;;;;;;;;5122230;28;20235;-64
2022/12/21 10:51:10;;;;;;;1.83;1.43;;;;;;;;;;5121039;28;20602;-64
2022/12/21 10:53:41;;;;;;;3.07;1.50;;;;;;;;;;5121296;28;20224;-64
2022/12/21 10:56:15;;;;;;;5.43;1.80;;;;;;;;;;5120909;28;20280;-64
2022/12/21 10:58:50;;;;;;;1.70;1.53;;;;;;;;;;5121037;28;20247;-64
2022/12/21 11:01:21;;;;;;;2.37;1.80;;;;;;;;;;5120982;27;20283;-64
2022/12/21 11:04:05;;;;;;;3.70;1.93;;;;;;;;;;5118298;28;20639;-64
2022/12/21 11:06:34;;;;;;;2.93;1.87;;;;;;;;;;5121089;28;20200;-64
2022/12/21 11:09:02;;;;;;;3.30;1.80;;;;;;;;;;5120649;28;20221;-64
2022/12/21 11:11:32;;;;;;;2.13;1.53;;;;;;;;;;5119618;28;20257;-64
2022/12/21 11:14:01;;;;;;;1.60;1.50;;;;;;;;;;5119580;28;20217;-64
2022/12/21 11:16:36;;;;;;;1.83;1.67;;;;;;;;;;5119087;28;20197;-64
2022/12/21 11:19:04;;;;;;;2.63;1.77;;;;;;;;;;5120291;28;20304;-64
2022/12/21 11:21:34;;;;;;;1.57;1.47;;;;;;;;;;5118276;28;20193;-64
2022/12/21 11:24:05;;;;;;;4.13;1.60;;;;;;;;;;5120470;28;20228;-64
2022/12/21 11:26:41;;;;;;;1.80;1.37;;;;;;;;;;5119908;28;20231;-64
2022/12/21 11:29:15;;;;;;;2.50;1.40;;;;;;;;;;5120164;28;20246;-64
2022/12/21 11:31:47;;;;;;;2.30;1.57;;;;;;;;;;5118037;28;20200;-64
2022/12/21 11:34:20;;;;;;;2.37;1.50;;;;;;;;;;5111751;28;20221;-64
2022/12/21 11:36:57;;;;;;;3.40;1.50;;;;;;;;;;5120281;28;20197;-64
2022/12/21 11:39:25;;;;;;;1.80;1.60;;;;;;;;;;5119981;28;20540;-65
2022/12/21 11:41:55;;;;;;;3.57;1.60;;;;;;;;;;5119047;28;20206;-64
2022/12/21 11:44:26;;;;;;;1.57;1.47;;;;;;;;;;5118605;28;20580;-64
2022/12/21 11:47:00;;;;;;;1.50;1.33;;;;;;;;;;5118260;28;20215;-64
2022/12/21 11:49:45;;;;;;;2.60;1.60;;;;;;;;;;5118186;28;20216;-64
2022/12/21 11:52:17;;;;;;;3.30;1.80;;;;;;;;;;5119481;28;20200;-63
2022/12/21 11:54:50;;;;;;;3.70;1.60;;;;;;;;;;5119956;28;20213;-64
2022/12/21 11:57:25;;;;;;;5.07;1.20;;;;;;;;;;5117958;28;20648;-63
2022/12/21 12:00:01;;;;;;;1.40;1.30;;;;;;;;;;5119125;28;20200;-64
2022/12/21 12:03:01;;;;;;;1.63;1.30;;;;;;;;;;5119393;28;20228;-63
2022/12/21 12:05:36;;;;;;;2.63;1.40;;;;;;;;;;5119522;28;20197;-64
2022/12/21 12:08:08;;;;;;;1.67;1.20;;;;;;;;;;5118734;28;20287;-64
2022/12/21 12:10:49;;;;;;;2.93;1.47;;;;;;;;;;5119335;28;20256;-62
2022/12/21 12:13:25;;;;;;;1.20;1.10;;;;;;;;;;5118673;28;20259;-62
2022/12/21 12:16:06;;;;;;;1.83;1.10;;;;;;;;;;5117353;28;22464;-62
2022/12/21 12:18:44;;;;;;;2.03;1.00;;;;;;;;;;5118828;28;20229;-63
2022/12/21 12:21:29;;;;;;;2.37;1.00;;;;;;;;;;5118403;28;20215;-62
2022/12/21 12:24:05;;;;;;;1.13;1.00;;;;;;;;;;5118198;28;20307;-62
2022/12/21 12:26:37;;;;;;;1.40;1.30;;;;;;;;;;5119241;28;21026;-62
2022/12/21 12:29:13;;;;;;;2.87;1.13;;;;;;;;;;5119545;28;20291;-62
2022/12/21 12:31:46;;;;;;;1.00;1.00;;;;;;;;;;5119013;28;20223;-63
2022/12/21 12:34:25;;;;;;;1.10;0.97;;;;;;;;;;5118826;28;20221;-62
2022/12/21 12:36:59;;;;;;;1.00;1.00;;;;;;;;;;5119400;28;20197;-62
2022/12/21 12:39:32;;;;;;;1.03;0.93;;;;;;;;;;5119181;28;20200;-62
2022/12/21 12:42:07;;;;;;;3.37;1.03;;;;;;;;;;5116394;28;20691;-62
2022/12/21 12:44:40;;;;;;;1.23;1.13;;;;;;;;;;5116741;28;20252;-62
2022/12/21 12:47:12;;;;;;;1.33;0.83;;;;;;;;;;5116603;28;20215;-62
2022/12/21 12:49:56;;;;;;;0.90;0.90;;;;;;;;;;5117215;28;20228;-62
2022/12/21 12:52:37;;;;;;;0.90;0.90;;;;;;;;;;5114544;28;20291;-62
2022/12/21 12:55:12;;;;;;;1.23;1.13;;;;;;;;;;5111781;28;20204;-62
2022/12/21 12:57:46;;;;;;;1.30;1.10;;;;;;;;;;5109336;28;20746;-62
2022/12/21 13:00:16;;;;;;;3.13;1.20;;;;;;;;;;5115105;28;20251;-62
2022/12/21 13:02:48;;;;;;;1.73;1.50;;;;;;;;;;5116858;28;20596;-62
2022/12/21 13:05:24;;;;;;;1.53;0.90;;;;;;;;;;5109969;28;20201;-61
2022/12/21 13:07:57;;;;;;;2.07;1.03;;;;;;;;;;5114572;28;20250;-62
2022/12/21 13:10:32;;;;;;;1.60;1.00;;;;;;;;;;5114059;28;20246;-62
2022/12/21 13:13:05;;;;;;;0.93;0.87;;;;;;;;;;5105412;28;20610;-61
2022/12/21 13:15:38;;;;;;;0.80;0.80;;;;;;;;;;5105256;28;20584;-61
2022/12/21 13:18:11;;;;;;;1.00;1.00;;;;;;;;;;5100534;28;20234;-62
2022/12/21 13:20:40;;;;;;;0.80;0.80;;;;;;;;;;5102595;28;20202;-62
2022/12/21 13:23:10;;;;;;;3.03;0.80;;;;;;;;;;5101299;28;20222;-61
2022/12/21 13:25:40;;;;;;;1.33;1.07;;;;;;;;;;5107415;27;20197;-62
2022/12/21 13:28:14;;;;;;;6.97;1.53;;;;;;;;;;5117437;28;20205;-62
2022/12/21 13:30:43;;;;;;;7.63;1.83;;;;;;;;;;5116315;28;20251;-62
2022/12/21 13:33:14;;;;;;;7.73;2.13;;;;;;;;;;5117615;28;20259;-62
2022/12/21 13:35:48;;;;;;;8.50;2.30;;;;;;;;;;5116857;28;20231;-62
2022/12/21 13:38:19;;;;;;;4.60;1.63;;;;;;;;;;5116781;28;20200;-61
2022/12/21 13:40:51;;;;;;;7.37;1.80;;;;;;;;;;5118005;28;20207;-62
2022/12/21 13:43:21;;;;;;;4.07;1.47;;;;;;;;;;5116723;28;20240;-62
2022/12/21 13:45:53;;;;;;;5.37;1.90;;;;;;;;;;5115456;28;20205;-62
2022/12/21 13:48:31;;;;;;;3.60;1.50;;;;;;;;;;5117645;28;20200;-62
2022/12/21 13:51:07;;;;;;;2.60;1.10;;;;;;;;;;5116727;28;20224;-61
2022/12/21 13:53:41;;;;;;;1.87;1.10;;;;;;;;;;5118714;28;20231;-62
2022/12/21 13:56:11;;;;;;;1.10;0.97;;;;;;;;;;5116128;28;20280;-62
2022/12/21 13:58:42;;;;;;;1.20;1.10;;;;;;;;;;5117636;28;20204;-62
2022/12/21 14:01:18;;;;;;;4.90;1.20;;;;;;;;;;5117735;28;20204;-62
2022/12/21 14:03:48;;;;;;;4.03;1.30;;;;;;;;;;5116099;28;20226;-62
2022/12/21 14:06:34;;;;;;;3.63;1.50;;;;;;;;;;5117100;28;20301;-61
2022/12/21 14:09:09;;;;;;;1.40;1.30;;;;;;;;;;5118250;28;20232;-61
2022/12/21 14:11:56;;;;;;;1.37;1.27;;;;;;;;;;5117078;28;20260;-61
2022/12/21 14:14:55;;;;;;;3.27;1.97;;;;;;;;;;5111551;28;20203;-62
2022/12/21 14:17:27;;;;;;;2.63;1.40;;;;;;;;;;5106902;28;20201;-62
2022/12/21 14:19:56;;;;;;;4.33;1.17;;;;;;;;;;5111789;28;20201;-63
2022/12/21 14:22:36;;;;;;;1.10;0.93;;;;;;;;;;5109453;28;20294;-62
2022/12/21 14:25:08;;;;;;;1.33;1.23;;;;;;;;;;5117332;28;20640;-62
2022/12/21 14:27:36;;;;;;;3.20;1.23;;;;;;;;;;5118400;28;20201;-61
2022/12/21 14:30:05;;;;;;;1.63;1.40;;;;;;;;;;5118324;28;20205;-62
2022/12/21 14:32:35;;;;;;;3.33;1.23;;;;;;;;;;5118247;28;20243;-60
2022/12/21 14:35:03;;;;;;;3.80;1.13;;;;;;;;;;5117330;28;21730;-61
2022/12/21 14:37:32;;;;;;;1.70;1.13;;;;;;;;;;5116152;28;20200;-62
2022/12/21 14:40:16;;;;;;;1.70;1.60;;;;;;;;;;5116574;28;20351;-62
2022/12/21 14:42:50;;;;;;;1.43;1.13;;;;;;;;;;5113425;28;20259;-62
2022/12/21 14:45:20;;;;;;;6.97;1.40;;;;;;;;;;5114878;28;20201;-62
2022/12/21 14:48:06;;;;;;;1.40;1.17;;;;;;;;;;5115188;28;20205;-62
2022/12/21 14:50:52;;;;;;;1.83;1.00;;;;;;;;;;5084347;28;20199;-61
2022/12/21 14:53:31;;;;;;;1.37;1.07;;;;;;;;;;5116431;28;20227;-61
2022/12/21 14:56:02;;;;;;;1.77;1.40;;;;;;;;;;5115509;28;20196;-61
2022/12/21 14:58:32;;;;;;;2.03;1.30;;;;;;;;;;5117085;28;20201;-62
2022/12/21 15:01:19;;;;;;;5.80;2.03;;;;;;;;;;5116853;28;20238;-62
2022/12/21 15:03:48;;;;;;;10.57;3.73;;;;;;;;;;5114320;28;20217;-61
2022/12/21 15:06:24;;;;;;;6.20;2.23;;;;;;;;;;5115512;28;20204;-61
2022/12/21 15:08:53;;;;;;;12.93;2.97;;;;;;;;;;5116937;28;20287;-62
2022/12/21 15:11:24;;;;;;;36.60;7.67;;;;;;;;;;5112351;28;20223;-61
2022/12/21 15:13:53;;;;;;;13.43;3.20;;;;;;;;;;5113006;28;20255;-62
2022/12/21 15:16:23;;;;;;;93.43;18.00;;;;;;;;;;5114232;28;20258;-62